createdAt,value
2023-03-11T00:01:11.814Z,97748.00
2023-03-11T00:03:38.506Z,97728.84
2023-03-11T00:06:05.357Z,97777.03
2023-03-11T00:08:31.963Z,97766.28
2023-03-11T00:11:00.579Z,97773.75
2023-03-11T00:13:28.953Z,97764.69
2023-03-11T00:15:56.582Z,97793.97
2023-03-11T00:18:28.005Z,97782.19
2023-03-11T00:20:56.196Z,97774.38
2023-03-11T00:23:23.759Z,97771.25
2023-03-11T00:25:50.789Z,97813.84
2023-03-11T00:28:17.872Z,97824.34
2023-03-11T00:30:46.105Z,97802.34
2023-03-11T00:33:15.043Z,97812.38
2023-03-11T00:35:42.659Z,97825.41
2023-03-11T00:38:13.609Z,97823.97
2023-03-11T00:40:40.431Z,97815.50
2023-03-11T00:43:07.105Z,97819.38
2023-03-11T00:45:33.911Z,97837.13
2023-03-11T00:48:00.655Z,97830.84
2023-03-11T00:50:30.717Z,97863.41
2023-03-11T00:52:57.868Z,97852.97
2023-03-11T00:55:27.562Z,97855.78
2023-03-11T00:57:55.640Z,97845.56
2023-03-11T01:00:24.819Z,97906.38
2023-03-11T01:02:53.038Z,97868.13
2023-03-11T01:05:21.807Z,97880.31
2023-03-11T01:07:49.113Z,97899.59
2023-03-11T01:10:17.180Z,97914.31
2023-03-11T01:12:44.028Z,97950.56
2023-03-11T01:15:18.854Z,97916.59
2023-03-11T01:17:45.639Z,97894.59
2023-03-11T01:20:13.037Z,97910.97
2023-03-11T01:22:39.637Z,97910.97
2023-03-11T01:25:06.580Z,97923.28
2023-03-11T01:27:33.120Z,97942.03
2023-03-11T01:29:59.705Z,97949.53
2023-03-11T01:32:26.297Z,97914.63
2023-03-11T01:34:52.824Z,97952.16
2023-03-11T01:37:20.199Z,97959.03
2023-03-11T01:39:46.741Z,97959.44
2023-03-11T01:42:13.369Z,97999.19
2023-03-11T01:44:40.026Z,97975.81
2023-03-11T01:47:13.112Z,97955.69
2023-03-11T01:49:43.567Z,97965.78
2023-03-11T01:52:10.221Z,98013.25
2023-03-11T01:54:41.677Z,98009.19
2023-03-11T01:57:12.591Z,98026.56
2023-03-11T01:59:48.761Z,98022.31
2023-03-11T02:02:22.925Z,98006.88
2023-03-11T02:04:50.906Z,98014.28
2023-03-11T02:07:18.031Z,98042.13
2023-03-11T02:09:44.782Z,97994.28
2023-03-11T02:12:15.056Z,98021.47
2023-03-11T02:14:46.239Z,98027.91
2023-03-11T02:17:13.360Z,98048.03
2023-03-11T02:20:06.236Z,98051.66
2023-03-11T02:22:33.612Z,98060.44
2023-03-11T02:25:09.379Z,98089.19
2023-03-11T02:27:41.195Z,98071.84
2023-03-11T02:30:11.074Z,98094.56
2023-03-11T02:32:38.262Z,98094.56
2023-03-11T02:35:06.821Z,98136.25
2023-03-11T02:37:33.378Z,98087.78
2023-03-11T02:40:33.214Z,98080.63
2023-03-11T02:43:01.707Z,98111.16
2023-03-11T02:45:29.976Z,98091.25
2023-03-11T02:47:58.630Z,98089.47
2023-03-11T02:50:27.851Z,98147.19
2023-03-11T02:52:54.400Z,98123.72
2023-03-11T02:55:21.641Z,98139.38
2023-03-11T02:57:48.397Z,98173.25
2023-03-11T03:00:16.735Z,98158.72
2023-03-11T03:02:44.784Z,98162.72
2023-03-11T03:05:12.407Z,98191.56
2023-03-11T03:07:39.334Z,98183.66
2023-03-11T03:10:08.391Z,98189.03
2023-03-11T03:12:34.965Z,98259.53
2023-03-11T03:15:01.452Z,98216.94
2023-03-11T03:17:28.073Z,98210.06
2023-03-11T03:19:54.645Z,98190.34
2023-03-11T03:22:21.203Z,98214.72
2023-03-11T03:24:47.886Z,98292.50
2023-03-11T03:27:14.509Z,98250.44
2023-03-11T03:29:41.032Z,98263.72
2023-03-11T03:32:07.810Z,98289.75
2023-03-11T03:34:34.420Z,98299.41
2023-03-11T03:37:00.993Z,98301.63
2023-03-11T03:39:30.113Z,98271.56
2023-03-11T03:41:57.228Z,98328.84
2023-03-11T03:44:23.947Z,98341.69
2023-03-11T03:46:50.469Z,98284.31
2023-03-11T03:49:17.051Z,98318.00
2023-03-11T03:51:43.645Z,98348.50
2023-03-11T03:54:10.139Z,98356.28
2023-03-11T03:56:36.660Z,98387.69
2023-03-11T03:59:03.615Z,98354.78
2023-03-11T04:01:30.179Z,98352.94
2023-03-11T04:03:56.896Z,98363.50
2023-03-11T04:06:26.701Z,98375.94
2023-03-11T04:08:53.623Z,98392.56
2023-03-11T04:11:20.869Z,98397.69
2023-03-11T04:13:47.618Z,98401.28
2023-03-11T04:16:19.805Z,98411.94
2023-03-11T04:18:47.328Z,98392.03
2023-03-11T04:21:14.028Z,98434.44
2023-03-11T04:23:40.574Z,98466.66
2023-03-11T04:26:07.115Z,98448.53
2023-03-11T04:28:33.702Z,98463.53
2023-03-11T04:31:00.285Z,98456.47
2023-03-11T04:33:26.818Z,98424.44
2023-03-11T04:35:53.514Z,98424.44
2023-03-11T04:38:20.090Z,98452.22
2023-03-11T04:40:46.708Z,98475.81
2023-03-11T04:43:13.277Z,98474.78
2023-03-11T04:45:40.700Z,98513.81
2023-03-11T04:48:07.475Z,98498.88
2023-03-11T04:50:34.050Z,98521.38
2023-03-11T04:53:00.828Z,98478.91
2023-03-11T04:55:27.366Z,98518.72
2023-03-11T04:57:53.893Z,98507.13
2023-03-11T05:00:24.744Z,98496.88
2023-03-11T05:02:51.669Z,98505.34
2023-03-11T05:05:19.592Z,98534.69
2023-03-11T05:07:46.579Z,98542.47
2023-03-11T05:10:13.984Z,98526.88
2023-03-11T05:12:40.756Z,98578.16
2023-03-11T05:15:07.705Z,98554.41
2023-03-11T05:17:34.327Z,98579.84
2023-03-11T05:20:00.856Z,98581.44
2023-03-11T05:22:27.423Z,98603.16
2023-03-11T05:24:53.998Z,98604.94
2023-03-11T05:27:21.302Z,98584.97
2023-03-11T05:29:47.940Z,98586.41
2023-03-11T05:32:14.855Z,98624.63
2023-03-11T05:34:41.597Z,98630.59
2023-03-11T05:37:09.062Z,98634.88
2023-03-11T05:39:37.668Z,98625.22
2023-03-11T05:42:05.383Z,98623.44
2023-03-11T05:44:32.905Z,98646.81
2023-03-11T05:47:00.374Z,98652.91
2023-03-11T05:49:27.413Z,98642.75
2023-03-11T05:51:55.286Z,98655.75
2023-03-11T05:54:23.346Z,98678.94
2023-03-11T05:56:49.870Z,98659.00
2023-03-11T05:59:17.720Z,98665.16
2023-03-11T06:01:44.986Z,98686.69
2023-03-11T06:04:11.986Z,98631.31
2023-03-11T06:06:41.322Z,98685.69
2023-03-11T06:09:12.877Z,98695.25
2023-03-11T06:11:39.576Z,98709.22
2023-03-11T06:14:06.162Z,98716.94
2023-03-11T06:16:32.886Z,98723.66
2023-03-11T06:19:02.576Z,98719.63
2023-03-11T06:21:29.196Z,98726.44
2023-03-11T06:23:55.729Z,98729.09
2023-03-11T06:26:23.224Z,98791.41
2023-03-11T06:28:51.706Z,98749.63
2023-03-11T06:31:24.333Z,98759.97
2023-03-11T06:33:51.531Z,98747.94
2023-03-11T06:36:20.258Z,98763.56
2023-03-11T06:38:47.076Z,98785.38
2023-03-11T06:41:13.602Z,98784.31
2023-03-11T06:43:40.161Z,98812.97
2023-03-11T06:46:19.119Z,98791.41
2023-03-11T06:48:46.368Z,98807.69
2023-03-11T06:51:13.560Z,98792.97
2023-03-11T06:53:40.430Z,98798.88
2023-03-11T06:56:09.082Z,98798.28
2023-03-11T06:58:37.745Z,98822.78
2023-03-11T07:01:07.599Z,98820.41
2023-03-11T07:03:34.530Z,98838.41
2023-03-11T07:06:01.369Z,98852.72
2023-03-11T07:08:28.584Z,98835.50
2023-03-11T07:11:15.636Z,98860.53
2023-03-11T07:13:42.604Z,98896.31
2023-03-11T07:16:21.881Z,98884.09
2023-03-11T07:18:50.944Z,98898.72
2023-03-11T07:21:21.206Z,98881.84
2023-03-11T07:23:49.855Z,98892.59
2023-03-11T07:26:17.922Z,98905.28
2023-03-11T07:28:44.845Z,98928.78
2023-03-11T07:31:20.007Z,98952.06
2023-03-11T07:33:47.103Z,98912.09
2023-03-11T07:36:19.949Z,98931.72
2023-03-11T07:38:47.106Z,98956.09
2023-03-11T07:41:15.228Z,98930.88
2023-03-11T07:43:42.913Z,98951.16
2023-03-11T07:46:18.683Z,98955.25
2023-03-11T07:48:45.881Z,98968.59
2023-03-11T07:51:16.349Z,98960.16
2023-03-11T07:53:43.319Z,98960.09
2023-03-11T07:56:12.695Z,98964.31
2023-03-11T07:58:40.352Z,98998.22
2023-03-11T08:01:12.699Z,98986.13
2023-03-11T08:03:39.578Z,98993.09
2023-03-11T08:06:14.675Z,98998.91
2023-03-11T08:08:42.006Z,99009.06
2023-03-11T08:11:09.577Z,99005.06
2023-03-11T08:13:36.348Z,99008.84
2023-03-11T08:16:07.475Z,99006.13
2023-03-11T08:18:34.683Z,99016.94
2023-03-11T08:21:06.485Z,99022.94
2023-03-11T08:23:33.739Z,99020.44
2023-03-11T08:26:11.150Z,99040.31
2023-03-11T08:28:37.827Z,99027.31
2023-03-11T08:31:12.565Z,99024.69
2023-03-11T08:33:39.132Z,99047.44
2023-03-11T08:36:06.161Z,99058.50
2023-03-11T08:38:33.023Z,99071.38
2023-03-11T08:41:00.868Z,99075.03
2023-03-11T08:43:27.728Z,99058.56
2023-03-11T08:45:54.349Z,99079.13
2023-03-11T08:48:20.878Z,99093.81
2023-03-11T08:50:54.397Z,99086.56
2023-03-11T08:53:22.538Z,99085.47
2023-03-11T08:55:51.533Z,99089.06
2023-03-11T08:58:19.104Z,99092.50
2023-03-11T09:00:46.191Z,99089.97
2023-03-11T09:03:13.545Z,99107.94
2023-03-11T09:05:40.754Z,99122.34
2023-03-11T09:08:07.375Z,99120.06
2023-03-11T09:10:33.955Z,99113.19
2023-03-11T09:13:00.493Z,99148.41
2023-03-11T09:15:27.063Z,99130.44
2023-03-11T09:17:54.323Z,99142.88
2023-03-11T09:20:20.925Z,99140.22
2023-03-11T09:22:47.637Z,99142.31
2023-03-11T09:25:14.733Z,99146.38
2023-03-11T09:27:41.532Z,99143.88
2023-03-11T09:30:09.783Z,99154.09
2023-03-11T09:32:36.430Z,99154.63
2023-03-11T09:35:03.432Z,99158.78
2023-03-11T09:37:30.390Z,99172.38
2023-03-11T09:39:57.011Z,99169.50
2023-03-11T09:42:41.135Z,99170.22
2023-03-11T09:45:19.890Z,99194.13
2023-03-11T09:48:13.340Z,99188.06
2023-03-11T09:50:47.298Z,99198.22
2023-03-11T09:53:34.383Z,99210.97
2023-03-11T09:56:06.112Z,99211.94
2023-03-11T09:59:08.205Z,99186.25
2023-03-11T10:01:42.790Z,99197.03
2023-03-11T10:04:33.096Z,99212.63
2023-03-11T10:07:03.215Z,99194.84
2023-03-11T10:09:41.126Z,99214.34
2023-03-11T10:12:37.079Z,99220.47
2023-03-11T10:15:40.560Z,99221.16
2023-03-11T10:18:19.175Z,99235.19
2023-03-11T10:21:04.661Z,99227.34
2023-03-11T10:23:55.210Z,99231.25
2023-03-11T10:26:25.997Z,99232.94
2023-03-11T10:29:00.124Z,99235.53
2023-03-11T10:32:03.778Z,99236.47
2023-03-11T10:34:38.436Z,99240.59
2023-03-11T10:37:11.426Z,99239.69
2023-03-11T10:39:38.753Z,99240.69
2023-03-11T10:42:10.181Z,99253.81
2023-03-11T10:44:42.122Z,99268.25
2023-03-11T10:47:34.996Z,99265.94
2023-03-11T10:50:01.546Z,99274.25
2023-03-11T10:52:28.136Z,99275.03
2023-03-11T10:55:03.201Z,99281.19
2023-03-11T10:57:34.352Z,99298.16
2023-03-11T11:00:17.311Z,99276.22
2023-03-11T11:02:58.270Z,99298.22
2023-03-11T11:05:33.825Z,99274.75
2023-03-11T11:08:13.704Z,99296.19
2023-03-11T11:11:00.340Z,99305.94
2023-03-11T11:13:34.350Z,99305.00
2023-03-11T11:16:09.179Z,99287.09
2023-03-11T11:18:42.199Z,99312.25
2023-03-11T11:21:10.991Z,99283.56
2023-03-11T11:23:42.332Z,99297.34
2023-03-11T11:26:21.943Z,99295.72
2023-03-11T11:29:12.315Z,99306.75
2023-03-11T11:31:41.895Z,99302.38
2023-03-11T11:34:32.632Z,99316.69
2023-03-11T11:37:02.363Z,99302.50
2023-03-11T11:39:30.545Z,99300.56
2023-03-11T11:41:57.252Z,99308.47
2023-03-11T11:44:32.850Z,99301.69
2023-03-11T11:47:13.631Z,99321.03
2023-03-11T11:49:50.270Z,99337.19
2023-03-11T11:52:22.678Z,99312.84
2023-03-11T11:54:49.159Z,99313.94
2023-03-11T11:57:18.023Z,99324.50
2023-03-11T11:59:44.855Z,99332.59
2023-03-11T12:02:34.670Z,99316.38
2023-03-11T12:05:17.552Z,99311.84
2023-03-11T12:08:00.190Z,99325.31
2023-03-11T12:10:39.579Z,99332.34
2023-03-11T12:13:34.038Z,99300.19
2023-03-11T12:16:23.397Z,99327.16
2023-03-11T12:18:58.393Z,99327.56
2023-03-11T12:21:28.092Z,99327.78
2023-03-11T12:24:17.553Z,99309.16
2023-03-11T12:26:47.074Z,99325.16
2023-03-11T12:29:34.309Z,99322.66
2023-03-11T12:32:02.454Z,99340.44
2023-03-11T12:34:33.638Z,99342.75
2023-03-11T12:37:04.497Z,99327.09
2023-03-11T12:39:36.392Z,99330.91
2023-03-11T12:42:11.955Z,99325.88
2023-03-11T12:44:40.488Z,99328.00
2023-03-11T12:47:13.222Z,99354.75
2023-03-11T12:49:44.063Z,99339.34
2023-03-11T12:52:13.659Z,99349.56
2023-03-11T12:55:10.577Z,99333.38
2023-03-11T12:57:44.292Z,99346.16
2023-03-11T13:00:42.033Z,99348.63
2023-03-11T13:03:46.090Z,99340.22
2023-03-11T13:06:31.498Z,99349.88
2023-03-11T13:08:59.268Z,99366.88
2023-03-11T13:11:31.797Z,99372.13
2023-03-11T13:14:17.231Z,99369.66
2023-03-11T13:16:45.535Z,99366.16
2023-03-11T13:19:49.081Z,99365.22
2023-03-11T13:22:53.955Z,99370.91
2023-03-11T13:25:30.163Z,99387.28
2023-03-11T13:28:20.157Z,99370.13
2023-03-11T13:31:24.401Z,99389.09
2023-03-11T13:33:56.534Z,99416.38
2023-03-11T13:36:29.184Z,99402.50
2023-03-11T13:39:14.326Z,99395.69
2023-03-11T13:41:44.570Z,99393.38
2023-03-11T13:44:19.890Z,99397.41
2023-03-11T13:46:53.021Z,99394.94
2023-03-11T13:49:28.416Z,99400.66
2023-03-11T13:51:57.023Z,99400.31
2023-03-11T13:54:52.860Z,99413.50
2023-03-11T13:57:32.406Z,99412.53
2023-03-11T14:00:24.342Z,99417.59
2023-03-11T14:02:56.103Z,99407.03
2023-03-11T14:05:33.544Z,99419.56
2023-03-11T14:08:23.521Z,99428.19
2023-03-11T14:10:54.845Z,99418.13
2023-03-11T14:13:23.169Z,99434.53
2023-03-11T14:15:58.698Z,99439.38
2023-03-11T14:18:32.429Z,99430.84
2023-03-11T14:20:59.608Z,99443.44
2023-03-11T14:23:30.302Z,99446.41
2023-03-11T14:26:02.482Z,99452.88
2023-03-11T14:28:33.152Z,99456.34
2023-03-11T14:31:02.168Z,99447.72
2023-03-11T14:33:28.843Z,99447.31
2023-03-11T14:35:59.691Z,99450.00
2023-03-11T14:38:29.616Z,99447.03
2023-03-11T14:41:01.412Z,99464.81
2023-03-11T14:43:39.574Z,99456.50
2023-03-11T14:46:07.842Z,99463.16
2023-03-11T14:48:40.189Z,99471.38
2023-03-11T14:51:14.877Z,99462.22
2023-03-11T14:53:51.851Z,99489.63
2023-03-11T14:56:23.998Z,99480.19
2023-03-11T14:59:15.060Z,99487.38
2023-03-11T15:01:43.724Z,99495.13
2023-03-11T15:04:35.194Z,99490.47
2023-03-11T15:07:04.447Z,99484.84
2023-03-11T15:09:31.852Z,99492.03
2023-03-11T15:12:00.860Z,99497.88
2023-03-11T15:14:27.330Z,99506.22
2023-03-11T15:16:55.693Z,99509.63
2023-03-11T15:19:28.075Z,99512.13
2023-03-11T15:21:58.641Z,99515.09
2023-03-11T15:24:31.384Z,99502.56
2023-03-11T15:27:02.289Z,99503.06
2023-03-11T15:29:30.312Z,99512.34
2023-03-11T15:31:57.373Z,99522.97
2023-03-11T15:34:30.621Z,99514.88
2023-03-11T15:37:20.546Z,99519.78
2023-03-11T15:39:51.039Z,99528.59
2023-03-11T15:42:20.665Z,99536.31
2023-03-11T15:45:16.479Z,99541.22
2023-03-11T15:47:44.269Z,99530.03
2023-03-11T15:50:37.202Z,99548.75
2023-03-11T15:53:09.739Z,99551.31
2023-03-11T15:55:37.230Z,99551.63
2023-03-11T15:58:08.063Z,99550.06
2023-03-11T16:00:36.694Z,99561.38
2023-03-11T16:03:03.801Z,99556.19
2023-03-11T16:05:30.438Z,99555.09
2023-03-11T16:07:57.070Z,99567.97
2023-03-11T16:10:25.721Z,99562.47
2023-03-11T16:12:52.336Z,99581.34
2023-03-11T16:15:24.958Z,99570.63
2023-03-11T16:17:52.877Z,99569.97
2023-03-11T16:20:21.970Z,99588.53
2023-03-11T16:22:50.277Z,99584.13
2023-03-11T16:25:24.960Z,99597.31
2023-03-11T16:27:53.213Z,99579.78
2023-03-11T16:30:20.912Z,99606.28
2023-03-11T16:32:47.477Z,99594.41
2023-03-11T16:35:14.285Z,99596.91
2023-03-11T16:37:42.796Z,99592.72
2023-03-11T16:40:28.946Z,99603.31
2023-03-11T16:43:00.194Z,99606.81
2023-03-11T16:45:27.262Z,99605.59
2023-03-11T16:47:53.879Z,99617.28
2023-03-11T16:50:21.014Z,99623.13
2023-03-11T16:52:47.876Z,99616.28
2023-03-11T16:55:14.495Z,99622.28
2023-03-11T16:57:41.051Z,99622.94
2023-03-11T17:00:09.871Z,99627.81
2023-03-11T17:02:37.405Z,99635.88
2023-03-11T17:05:05.815Z,99634.69
2023-03-11T17:07:33.001Z,99635.50
2023-03-11T17:10:00.861Z,99649.94
2023-03-11T17:12:27.925Z,99646.50
2023-03-11T17:14:55.105Z,99655.22
2023-03-11T17:17:23.495Z,99660.19
2023-03-11T17:19:50.107Z,99668.47
2023-03-11T17:22:17.145Z,99679.69
2023-03-11T17:24:43.818Z,99681.50
2023-03-11T17:27:10.404Z,99672.84
2023-03-11T17:29:39.027Z,99679.50
2023-03-11T17:32:06.623Z,99682.13
2023-03-11T17:34:33.192Z,99689.16
2023-03-11T17:36:59.795Z,99697.97
2023-03-11T17:39:26.369Z,99701.06
2023-03-11T17:41:52.892Z,99703.19
2023-03-11T17:44:19.427Z,99701.81
2023-03-11T17:46:46.041Z,99706.53
2023-03-11T17:49:14.787Z,99709.13
2023-03-11T17:51:41.601Z,99711.31
2023-03-11T17:54:09.586Z,99715.16
2023-03-11T17:56:36.095Z,99714.38
2023-03-11T17:59:02.611Z,99714.22
2023-03-11T18:01:30.395Z,99713.44
2023-03-11T18:03:57.147Z,99724.00
2023-03-11T18:06:23.795Z,99718.91
2023-03-11T18:08:51.481Z,99719.06
2023-03-11T18:11:21.631Z,99719.34
2023-03-11T18:13:48.655Z,99723.66
2023-03-11T18:16:21.325Z,99728.75
2023-03-11T18:18:48.736Z,99730.31
2023-03-11T18:21:20.629Z,99731.50
2023-03-11T18:23:47.702Z,99727.25
2023-03-11T18:26:17.205Z,99726.28
2023-03-11T18:28:44.102Z,99734.78
2023-03-11T18:31:19.555Z,99725.91
2023-03-11T18:33:57.155Z,99728.22
2023-03-11T18:36:29.668Z,99729.91
2023-03-11T18:38:58.092Z,99731.94
2023-03-11T18:41:26.294Z,99738.28
2023-03-11T18:43:54.504Z,99736.81
2023-03-11T18:46:21.245Z,99738.84
2023-03-11T18:48:47.817Z,99738.44
2023-03-11T18:51:15.424Z,99741.41
2023-03-11T18:53:42.987Z,99751.50
2023-03-11T18:56:13.622Z,99747.75
2023-03-11T18:58:40.409Z,99745.00
2023-03-11T19:01:10.682Z,99747.56
2023-03-11T19:03:38.310Z,99748.81
2023-03-11T19:06:07.630Z,99750.66
2023-03-11T19:08:38.246Z,99742.78
2023-03-11T19:11:13.701Z,99752.09
2023-03-11T19:13:46.973Z,99753.28
2023-03-11T19:16:21.936Z,99760.47
2023-03-11T19:18:48.937Z,99768.28
2023-03-11T19:21:16.546Z,99769.41
2023-03-11T19:23:47.451Z,99768.84
2023-03-11T19:26:14.107Z,99771.22
2023-03-11T19:28:40.984Z,99770.34
2023-03-11T19:31:07.761Z,99781.72
2023-03-11T19:33:34.701Z,99777.19
2023-03-11T19:36:03.936Z,99781.72
2023-03-11T19:38:33.620Z,99776.66
2023-03-11T19:41:01.555Z,99785.31
2023-03-11T19:43:29.913Z,99780.34
2023-03-11T19:45:56.734Z,99788.09
2023-03-11T19:48:23.634Z,99780.44
2023-03-11T19:50:51.469Z,99789.38
2023-03-11T19:53:19.183Z,99786.25
2023-03-11T19:55:51.570Z,99786.47
2023-03-11T19:58:18.482Z,99792.41
2023-03-11T20:00:45.901Z,99788.97
2023-03-11T20:03:14.293Z,99788.97
2023-03-11T20:05:43.559Z,99789.06
2023-03-11T20:08:11.450Z,99796.94
2023-03-11T20:10:40.278Z,99790.09
2023-03-11T20:13:07.780Z,99777.81
2023-03-11T20:15:35.090Z,99789.31
2023-03-11T20:18:04.935Z,99791.03
2023-03-11T20:20:32.554Z,99794.50
2023-03-11T20:22:59.499Z,99795.34
2023-03-11T20:25:26.645Z,99791.44
2023-03-11T20:27:53.715Z,99793.94
2023-03-11T20:30:21.129Z,99789.47
2023-03-11T20:32:48.781Z,99786.16
2023-03-11T20:35:15.639Z,99800.56
2023-03-11T20:37:43.269Z,99798.94
2023-03-11T20:40:13.127Z,99790.28
2023-03-11T20:42:42.409Z,99804.19
2023-03-11T20:45:10.471Z,99799.16
2023-03-11T20:47:39.764Z,99803.69
2023-03-11T20:50:06.887Z,99802.84
2023-03-11T20:52:35.804Z,99800.69
2023-03-11T20:55:04.817Z,99793.06
2023-03-11T20:57:32.819Z,99799.16
2023-03-11T21:00:02.181Z,99796.84
2023-03-11T21:02:30.918Z,99796.09
2023-03-11T21:04:57.567Z,99797.88
2023-03-11T21:07:24.354Z,99800.59
2023-03-11T21:09:54.564Z,99802.53
2023-03-11T21:12:22.084Z,99796.34
2023-03-11T21:14:48.756Z,99800.63
2023-03-11T21:17:15.671Z,99793.69
2023-03-11T21:19:42.368Z,99793.69
2023-03-11T21:22:11.760Z,99793.78
2023-03-11T21:24:38.716Z,99802.38
2023-03-11T21:27:05.306Z,99795.34
2023-03-11T21:29:31.932Z,99795.97
2023-03-11T21:32:01.190Z,99792.47
2023-03-11T21:34:27.989Z,99788.09
2023-03-11T21:36:54.686Z,99794.94
2023-03-11T21:39:22.056Z,99789.81
2023-03-11T21:41:48.807Z,99800.53
2023-03-11T21:44:15.537Z,99792.59
2023-03-11T21:46:42.307Z,99792.47
2023-03-11T21:49:09.132Z,99794.22
2023-03-11T21:51:35.856Z,99794.91
2023-03-11T21:54:03.608Z,99797.44
2023-03-11T21:56:30.409Z,99794.84
2023-03-11T21:58:57.280Z,99798.34
2023-03-11T22:01:23.920Z,99795.06
2023-03-11T22:03:50.621Z,99796.22
2023-03-11T22:06:17.414Z,99790.91
2023-03-11T22:08:44.292Z,99789.88
2023-03-11T22:11:18.395Z,99801.13
2023-03-11T22:13:46.941Z,99800.84
2023-03-11T22:16:14.141Z,99806.50
2023-03-11T22:18:41.044Z,99798.63
2023-03-11T22:21:10.005Z,99799.03
2023-03-11T22:23:37.354Z,99793.63
2023-03-11T22:26:04.029Z,99795.94
2023-03-11T22:28:30.690Z,99799.13
2023-03-11T22:30:57.423Z,99806.28
2023-03-11T22:33:24.256Z,99812.69
2023-03-11T22:35:53.716Z,99809.19
2023-03-11T22:38:20.669Z,99804.88
2023-03-11T22:40:47.475Z,99807.81
2023-03-11T22:43:14.158Z,99813.09
2023-03-11T22:45:40.843Z,99816.47
2023-03-11T22:48:07.605Z,99828.16
2023-03-11T22:50:34.945Z,99825.81
2023-03-11T22:53:02.035Z,99831.22
2023-03-11T22:55:28.586Z,99830.72
2023-03-11T22:57:55.182Z,99833.22
2023-03-11T23:00:22.606Z,99833.31
2023-03-11T23:02:53.559Z,99838.69
2023-03-11T23:05:20.689Z,99842.94
2023-03-11T23:07:48.299Z,99832.13
2023-03-11T23:10:19.082Z,99832.25
2023-03-11T23:12:47.445Z,99820.56
2023-03-11T23:15:17.071Z,99828.47
2023-03-11T23:17:57.424Z,99827.88
2023-03-11T23:20:24.095Z,99825.06
2023-03-11T23:22:50.640Z,99831.22
2023-03-11T23:25:17.281Z,99825.94
2023-03-11T23:27:45.235Z,99832.38
2023-03-11T23:30:14.449Z,99828.84
2023-03-11T23:32:41.053Z,99829.53
2023-03-11T23:35:08.002Z,99831.59
2023-03-11T23:37:34.728Z,99828.13
2023-03-11T23:40:01.308Z,99833.19
2023-03-11T23:42:27.905Z,99834.09
2023-03-11T23:44:54.472Z,99837.25
2023-03-11T23:47:21.309Z,99840.06
2023-03-11T23:49:47.848Z,99841.84
2023-03-11T23:52:16.692Z,99843.63
2023-03-11T23:54:45.593Z,99834.16
2023-03-11T23:57:12.160Z,99840.88
2023-03-11T23:59:38.676Z,99838.16
